Time;durP1;ratioP1;P1;durP2;ratioP2;P2;SDS_P1;SDS_P2;PMS_P1;PMS_P2;Temp;Humidity;BMP_temperature;BMP_pressure;BME280_temperature;BME280_humidity;BME280_pressure;Samples;Min_cycle;Max_cycle;Signal;HPM_P1;HPM_P2
2024/01/13 00:01:04;;;;;;;13.50;12.30;;;5.10;99.90;;;;;;5035994;28;20038;-62
2024/01/13 00:03:31;;;;;;;14.27;13.00;;;5.10;99.90;;;;;;5035295;28;20136;-62
2024/01/13 00:05:59;;;;;;;14.30;12.75;;;5.10;99.90;;;;;;5035736;28;20506;-62
2024/01/13 00:08:26;;;;;;;15.57;14.18;;;5.10;99.90;;;;;;5034147;28;20548;-62
2024/01/13 00:11:03;;;;;;;15.00;13.50;;;5.10;99.90;;;;;;5035179;28;20041;-62
2024/01/13 00:13:30;;;;;;;15.07;13.55;;;5.10;99.90;;;;;;5034876;28;20045;-62
2024/01/13 00:15:57;;;;;;;15.18;13.75;;;5.10;99.90;;;;;;5033867;28;20048;-62
2024/01/13 00:18:23;;;;;;;13.95;12.60;;;5.10;99.90;;;;;;5033793;28;20038;-62
2024/01/13 00:21:05;;;;;;;14.82;13.32;;;5.10;99.90;;;;;;5035249;28;20045;-62
2024/01/13 00:23:32;;;;;;;15.00;13.40;;;5.10;99.90;;;;;;5033450;28;20441;-61
2024/01/13 00:25:59;;;;;;;15.18;13.77;;;5.10;99.90;;;;;;5033745;28;20478;-61
2024/01/13 00:28:26;;;;;;;14.43;12.95;;;5.10;99.90;;;;;;5034965;28;20050;-61
2024/01/13 00:31:02;;;;;;;15.00;13.52;;;5.10;99.90;;;;;;5033923;28;20479;-65
2024/01/13 00:33:29;;;;;;;15.82;14.32;;;5.10;99.90;;;;;;5033706;28;20109;-61
2024/01/13 00:35:57;;;;;;;18.02;15.15;;;5.10;99.90;;;;;;5033762;28;20095;-61
2024/01/13 00:38:24;;;;;;;16.77;15.18;;;5.10;99.90;;;;;;5034759;28;20042;-61
2024/01/13 00:41:03;;;;;;;16.83;15.23;;;5.00;99.90;;;;;;5034704;28;20045;-61
2024/01/13 00:43:30;;;;;;;17.52;15.45;;;5.00;99.90;;;;;;5034351;28;20041;-61
2024/01/13 00:45:57;;;;;;;17.35;15.05;;;5.00;99.90;;;;;;5034890;28;20103;-62
2024/01/13 00:48:24;;;;;;;17.90;16.20;;;5.00;99.90;;;;;;5034492;28;20048;-61
2024/01/13 00:51:07;;;;;;;17.48;15.80;;;4.90;99.90;;;;;;5034789;28;20049;-61
2024/01/13 00:53:34;;;;;;;18.25;16.55;;;4.90;99.90;;;;;;5034260;28;20519;-62
2024/01/13 00:56:01;;;;;;;19.70;17.77;;;4.90;99.90;;;;;;5033003;28;20473;-62
2024/01/13 00:58:28;;;;;;;18.80;16.80;;;4.90;99.90;;;;;;5034488;28;20180;-62
2024/01/13 01:01:08;;;;;;;19.10;17.30;;;4.90;99.90;;;;;;5033836;28;20051;-61
2024/01/13 01:03:35;;;;;;;20.00;17.90;;;4.90;99.90;;;;;;5034857;28;20037;-61
2024/01/13 01:06:02;;;;;;;19.30;17.35;;;5.00;99.90;;;;;;5032857;28;20053;-61
2024/01/13 01:08:29;;;;;;;19.42;17.42;;;4.90;99.90;;;;;;5033106;28;20487;-64
2024/01/13 01:11:05;;;;;;;19.70;17.70;;;4.90;99.90;;;;;;5034686;28;20034;-63
2024/01/13 01:13:32;;;;;;;18.88;16.98;;;4.80;99.90;;;;;;5034163;28;20133;-64
2024/01/13 01:15:59;;;;;;;18.52;16.73;;;4.80;99.90;;;;;;5032942;28;20152;-64
2024/01/13 01:18:26;;;;;;;19.73;17.83;;;4.80;99.90;;;;;;5034260;28;20117;-64
2024/01/13 01:21:09;;;;;;;19.65;17.67;;;4.80;99.90;;;;;;5033901;28;20487;-64
2024/01/13 01:23:37;;;;;;;19.30;17.42;;;4.80;99.90;;;;;;5032456;28;20049;-62
2024/01/13 01:26:03;;;;;;;20.42;18.17;;;4.80;99.90;;;;;;5033544;28;20049;-64
2024/01/13 01:28:30;;;;;;;19.13;17.33;;;4.80;99.90;;;;;;5032920;28;20152;-63
2024/01/13 01:31:02;;;;;;;20.08;18.05;;;4.90;99.90;;;;;;5034024;28;20394;-63
2024/01/13 01:33:29;;;;;;;16.95;15.35;;;4.80;99.90;;;;;;5033698;28;20057;-63
2024/01/13 01:35:56;;;;;;;19.15;17.35;;;4.70;99.90;;;;;;5034021;28;20489;-63
2024/01/13 01:38:23;;;;;;;20.20;18.00;;;4.70;99.90;;;;;;5032450;28;20482;-60
2024/01/13 01:41:06;;;;;;;17.98;16.27;;;4.80;99.90;;;;;;5033648;28;20050;-60
2024/01/13 01:43:33;;;;;;;20.02;17.10;;;4.70;99.90;;;;;;5033507;28;20045;-63
2024/01/13 01:45:59;;;;;;;19.58;17.08;;;4.70;99.90;;;;;;5033483;28;20068;-63
2024/01/13 01:48:26;;;;;;;18.98;17.13;;;4.70;99.90;;;;;;5033474;28;20426;-63
2024/01/13 01:51:04;;;;;;;19.70;17.80;;;4.70;99.90;;;;;;5033439;28;20049;-63
2024/01/13 01:53:31;;;;;;;18.35;16.55;;;4.70;99.90;;;;;;5033320;28;20504;-63
2024/01/13 01:55:58;;;;;;;19.23;17.42;;;4.70;99.90;;;;;;5033530;28;20475;-63
2024/01/13 01:58:25;;;;;;;17.73;15.95;;;4.70;99.90;;;;;;5033258;28;20037;-63
2024/01/13 02:01:00;;;;;;;18.88;16.95;;;4.70;99.90;;;;;;5033440;28;20458;-63
2024/01/13 02:03:27;;;;;;;17.75;16.08;;;4.70;99.90;;;;;;5033242;28;20087;-63
2024/01/13 02:05:54;;;;;;;18.38;16.58;;;4.60;99.90;;;;;;5033664;28;20048;-64
2024/01/13 02:08:21;;;;;;;18.38;16.67;;;4.70;99.90;;;;;;5033373;28;20045;-64
2024/01/13 02:11:04;;;;;;;15.43;13.90;;;4.70;99.90;;;;;;5033156;28;20077;-64
2024/01/13 02:13:30;;;;;;;16.73;14.95;;;4.60;99.90;;;;;;5033028;28;20095;-60
2024/01/13 02:15:57;;;;;;;16.08;14.50;;;4.50;99.90;;;;;;5032263;28;20033;-60
2024/01/13 02:18:24;;;;;;;14.57;13.15;;;4.40;99.90;;;;;;5036556;28;20524;-60
2024/01/13 02:21:04;;;;;;;15.63;14.23;;;4.50;99.90;;;;;;5037383;28;20103;-60
2024/01/13 02:23:31;;;;;;;14.77;13.38;;;4.40;99.90;;;;;;5037381;28;20053;-60
2024/01/13 02:25:58;;;;;;;14.18;12.25;;;4.50;99.90;;;;;;5037196;28;20041;-60
2024/01/13 02:28:25;;;;;;;14.77;13.48;;;4.40;99.90;;;;;;5037314;28;20041;-60
2024/01/13 02:31:14;;;;;;;15.13;13.55;;;4.40;99.90;;;;;;5035479;28;20050;-60
2024/01/13 02:33:42;;;;;;;14.75;13.38;;;4.40;99.90;;;;;;5035809;28;20041;-60
2024/01/13 02:36:09;;;;;;;15.32;13.65;;;4.40;99.90;;;;;;5036045;28;20045;-60
2024/01/13 02:38:36;;;;;;;15.43;14.07;;;4.40;99.90;;;;;;5036980;28;20471;-60
2024/01/13 02:41:04;;;;;;;13.40;12.20;;;4.40;99.90;;;;;;5035904;28;20103;-60
2024/01/13 02:43:32;;;;;;;13.70;12.40;;;4.40;99.90;;;;;;5036790;28;20092;-60
2024/01/13 02:45:58;;;;;;;15.73;14.07;;;4.40;99.90;;;;;;5036947;28;20041;-60
2024/01/13 02:48:25;;;;;;;16.30;14.60;;;4.40;99.90;;;;;;5035704;28;20033;-60
2024/01/13 02:51:04;;;;;;;13.85;12.48;;;4.40;99.90;;;;;;5036602;28;20137;-60
2024/01/13 02:53:31;;;;;;;14.07;12.65;;;4.40;99.90;;;;;;5036349;28;20494;-60
2024/01/13 02:55:57;;;;;;;15.13;12.80;;;4.30;99.90;;;;;;5036584;28;20065;-60
2024/01/13 02:58:24;;;;;;;15.05;13.45;;;4.20;99.90;;;;;;5036800;28;20033;-61
2024/01/13 03:01:07;;;;;;;13.70;12.38;;;4.20;99.90;;;;;;5034896;28;20316;-60
2024/01/13 03:03:34;;;;;;;13.90;12.60;;;4.20;99.90;;;;;;5018973;28;20119;-60
2024/01/13 03:06:03;;;;;;;14.52;13.02;;;4.10;99.90;;;;;;5036730;28;20045;-60
2024/01/13 03:08:30;;;;;;;13.57;12.15;;;4.20;99.90;;;;;;5036045;28;20046;-60
2024/01/13 03:11:07;;;;;;;16.17;12.25;;;4.20;99.90;;;;;;5036400;28;20054;-60
2024/01/13 03:13:34;;;;;;;14.07;12.68;;;4.20;99.90;;;;;;5036111;28;20037;-60
2024/01/13 03:16:00;;;;;;;15.55;13.40;;;4.20;99.90;;;;;;5035877;28;20099;-60
2024/01/13 03:18:28;;;;;;;14.02;12.73;;;4.20;99.90;;;;;;5035225;28;20402;-60
2024/01/13 03:21:05;;;;;;;13.57;12.07;;;4.20;99.90;;;;;;5036328;28;20410;-60
2024/01/13 03:23:32;;;;;;;12.52;11.23;;;4.10;99.90;;;;;;5036221;28;20045;-60
2024/01/13 03:26:00;;;;;;;11.98;10.77;;;4.00;99.90;;;;;;5035724;28;20409;-60
2024/01/13 03:28:27;;;;;;;11.68;10.52;;;4.00;99.90;;;;;;5035522;28;20103;-60
2024/01/13 03:31:06;;;;;;;12.45;11.15;;;4.00;99.90;;;;;;5034639;28;20567;-60
2024/01/13 03:33:34;;;;;;;12.77;11.52;;;4.00;99.90;;;;;;5034545;28;20075;-60
2024/01/13 03:36:01;;;;;;;12.43;11.23;;;4.10;99.90;;;;;;5035881;28;20041;-60
2024/01/13 03:38:28;;;;;;;12.80;11.60;;;4.10;99.90;;;;;;5036105;28;20038;-60
2024/01/13 03:40:58;;;;;;;12.90;11.48;;;4.10;99.90;;;;;;5035991;28;20148;-60
2024/01/13 03:43:25;;;;;;;15.70;12.40;;;4.10;99.90;;;;;;5035428;28;20072;-60
2024/01/13 03:45:51;;;;;;;13.20;11.93;;;4.10;99.90;;;;;;5035607;28;20120;-60
2024/01/13 03:48:18;;;;;;;13.40;11.93;;;4.10;99.90;;;;;;5035503;28;20073;-60
2024/01/13 03:50:45;;;;;;;13.73;12.32;;;4.20;99.90;;;;;;5034417;28;20041;-60
2024/01/13 03:53:12;;;;;;;13.50;12.15;;;4.10;99.90;;;;;;5035118;28;20342;-60
2024/01/13 03:55:39;;;;;;;13.30;12.00;;;4.10;99.90;;;;;;5035267;28;20049;-60
2024/01/13 03:58:06;;;;;;;13.27;12.07;;;4.10;99.90;;;;;;5035604;28;20040;-60
2024/01/13 04:00:34;;;;;;;13.90;11.45;;;4.10;99.90;;;;;;5035689;28;20084;-60
2024/01/13 04:03:01;;;;;;;12.38;11.18;;;4.10;99.90;;;;;;5035512;28;20041;-60
2024/01/13 04:05:28;;;;;;;11.85;10.65;;;4.10;99.90;;;;;;5034919;28;20050;-60
2024/01/13 04:07:55;;;;;;;10.82;9.82;;;4.10;99.90;;;;;;5034284;28;20042;-60
2024/01/13 04:10:22;;;;;;;11.57;10.48;;;4.00;99.90;;;;;;5035601;28;20060;-60
2024/01/13 04:12:49;;;;;;;11.23;10.13;;;4.00;99.90;;;;;;5035296;28;20037;-60
2024/01/13 04:15:16;;;;;;;11.10;10.10;;;4.00;99.90;;;;;;5035245;28;20037;-60
2024/01/13 04:17:43;;;;;;;11.38;10.27;;;4.00;99.90;;;;;;5035063;28;20079;-60
2024/01/13 04:20:10;;;;;;;11.45;10.35;;;4.00;99.90;;;;;;5035038;28;20521;-60
2024/01/13 04:22:37;;;;;;;12.15;10.95;;;4.00;99.90;;;;;;5034808;28;20382;-60
2024/01/13 04:25:04;;;;;;;11.75;10.10;;;4.00;99.90;;;;;;5033895;28;20513;-60
2024/01/13 04:27:31;;;;;;;12.80;10.32;;;4.00;99.90;;;;;;5034868;28;20069;-62
2024/01/13 04:29:58;;;;;;;11.73;10.63;;;3.90;99.90;;;;;;5034451;28;20045;-60
2024/01/13 04:32:24;;;;;;;12.88;11.55;;;3.90;99.90;;;;;;5034803;28;20445;-60
2024/01/13 04:34:51;;;;;;;11.65;9.90;;;3.90;99.90;;;;;;5033358;28;20047;-60
2024/01/13 04:37:18;;;;;;;12.65;11.40;;;3.80;99.90;;;;;;5034416;28;20045;-63
2024/01/13 04:39:45;;;;;;;14.52;11.25;;;3.80;99.90;;;;;;5034642;28;20451;-64
2024/01/13 04:42:12;;;;;;;11.38;10.35;;;3.70;99.90;;;;;;5034152;28;20124;-65
2024/01/13 04:44:39;;;;;;;12.05;10.80;;;3.70;99.90;;;;;;5034716;28;20048;-64
2024/01/13 04:47:05;;;;;;;11.15;10.15;;;3.70;99.90;;;;;;5034547;28;20050;-65
2024/01/13 04:49:32;;;;;;;12.57;11.32;;;3.70;99.90;;;;;;5034502;28;20072;-64
2024/01/13 04:51:59;;;;;;;10.93;9.85;;;3.70;99.90;;;;;;5033334;28;20041;-64
2024/01/13 04:54:26;;;;;;;11.10;10.10;;;3.70;99.90;;;;;;5034368;28;20039;-63
2024/01/13 04:56:53;;;;;;;10.32;9.45;;;3.70;99.90;;;;;;5034234;28;20046;-63
2024/01/13 04:59:19;;;;;;;10.55;9.25;;;3.70;99.90;;;;;;5034242;28;20046;-64
2024/01/13 05:01:46;;;;;;;10.45;9.45;;;3.60;99.90;;;;;;5033221;28;20072;-64
2024/01/13 05:04:13;;;;;;;10.48;9.48;;;3.60;99.90;;;;;;5033982;28;20045;-64
2024/01/13 05:06:40;;;;;;;11.82;9.13;;;3.50;99.90;;;;;;5034149;28;20087;-63
2024/01/13 05:09:07;;;;;;;11.73;10.63;;;3.50;99.90;;;;;;5034290;28;20471;-64
2024/01/13 05:11:34;;;;;;;11.13;10.02;;;3.50;99.90;;;;;;5034117;28;20048;-60
2024/01/13 05:14:01;;;;;;;9.98;9.02;;;3.50;99.90;;;;;;5033795;28;20041;-64
2024/01/13 05:16:28;;;;;;;10.48;9.52;;;3.50;99.90;;;;;;5034083;28;20045;-64
2024/01/13 05:18:55;;;;;;;10.45;9.45;;;3.50;99.90;;;;;;5033591;28;20042;-63
2024/01/13 05:21:22;;;;;;;11.07;10.02;;;3.50;99.90;;;;;;5033913;28;20044;-64
2024/01/13 05:23:49;;;;;;;11.25;10.15;;;3.40;99.90;;;;;;5033652;28;20455;-64
2024/01/13 05:26:16;;;;;;;11.07;10.00;;;3.40;99.90;;;;;;5033701;28;20046;-64
2024/01/13 05:28:43;;;;;;;11.40;10.32;;;3.40;99.90;;;;;;5033807;28;20039;-65
2024/01/13 05:31:09;;;;;;;12.27;11.07;;;3.40;99.90;;;;;;5033713;28;20133;-63
2024/01/13 05:33:36;;;;;;;13.07;11.82;;;3.50;99.90;;;;;;5033607;28;20041;-64
2024/01/13 05:36:03;;;;;;;12.70;11.50;;;3.50;99.90;;;;;;5033961;28;20042;-60
2024/01/13 05:38:30;;;;;;;13.45;12.15;;;3.50;99.90;;;;;;5033479;28;20076;-61
2024/01/13 05:40:57;;;;;;;13.80;12.40;;;3.40;99.90;;;;;;5033658;28;20033;-61
2024/01/13 05:43:24;;;;;;;14.90;13.10;;;3.30;99.90;;;;;;5032260;28;20410;-61
2024/01/13 05:45:50;;;;;;;15.25;13.13;;;3.30;99.90;;;;;;5033434;28;20049;-61
2024/01/13 05:48:17;;;;;;;15.35;13.73;;;3.20;99.90;;;;;;5032557;28;20478;-61
2024/01/13 05:50:44;;;;;;;14.77;13.18;;;3.20;99.90;;;;;;5033394;28;20539;-60
2024/01/13 05:53:11;;;;;;;16.85;15.15;;;3.20;99.90;;;;;;5031841;28;20490;-61
2024/01/13 05:55:38;;;;;;;18.92;15.05;;;3.20;99.90;;;;;;5033182;28;20041;-61
2024/01/13 05:58:05;;;;;;;16.35;14.65;;;3.20;99.90;;;;;;5033217;28;20033;-63
2024/01/13 06:00:32;;;;;;;15.18;13.50;;;3.00;99.90;;;;;;5033643;28;20050;-65
2024/01/13 06:02:59;;;;;;;18.55;13.35;;;3.00;99.90;;;;;;5033501;28;20124;-65
2024/01/13 06:05:26;;;;;;;16.38;14.65;;;3.00;99.90;;;;;;5032116;28;20053;-65
2024/01/13 06:07:54;;;;;;;15.63;13.65;;;3.10;99.90;;;;;;5033189;28;20064;-65
2024/01/13 06:10:21;;;;;;;15.50;14.00;;;3.10;99.90;;;;;;5031971;28;20050;-65
2024/01/13 06:12:47;;;;;;;16.85;15.07;;;3.10;99.90;;;;;;5033216;28;20462;-65
2024/01/13 06:15:14;;;;;;;17.27;15.55;;;3.20;99.90;;;;;;5028848;28;20058;-65
2024/01/13 06:17:41;;;;;;;18.88;15.20;;;3.30;99.90;;;;;;5013591;28;20045;-65
2024/01/13 06:20:08;;;;;;;18.27;15.07;;;3.30;99.90;;;;;;5012011;28;20046;-65
2024/01/13 06:22:37;;;;;;;15.68;14.07;;;3.30;99.90;;;;;;5013570;28;20471;-65
2024/01/13 06:25:04;;;;;;;16.38;14.68;;;3.40;99.90;;;;;;5013243;28;20124;-65
2024/01/13 06:27:31;;;;;;;16.88;15.18;;;3.40;99.90;;;;;;5012239;28;20123;-64
2024/01/13 06:29:58;;;;;;;17.65;15.85;;;3.30;99.90;;;;;;5013028;28;20050;-65
2024/01/13 06:32:25;;;;;;;18.60;16.70;;;3.30;99.90;;;;;;5013232;28;20092;-65
2024/01/13 06:34:51;;;;;;;16.90;15.02;;;3.30;99.90;;;;;;5013008;28;20438;-64
2024/01/13 06:37:19;;;;;;;17.52;15.63;;;3.30;99.90;;;;;;5011991;28;20460;-65
2024/01/13 06:39:46;;;;;;;16.10;14.40;;;3.30;99.90;;;;;;5013126;28;20446;-65
2024/01/13 06:42:13;;;;;;;17.20;15.15;;;3.20;99.90;;;;;;5013258;28;20037;-65
2024/01/13 06:44:40;;;;;;;16.45;14.75;;;3.20;99.90;;;;;;5012969;28;20491;-65
2024/01/13 06:47:10;;;;;;;16.67;14.70;;;3.20;99.90;;;;;;5013481;28;20080;-65
2024/01/13 06:49:37;;;;;;;17.20;15.40;;;3.30;99.90;;;;;;5013440;28;20092;-65
2024/01/13 06:52:04;;;;;;;16.60;13.93;;;3.20;99.90;;;;;;5013358;28;20042;-65
2024/01/13 06:54:31;;;;;;;18.15;15.60;;;3.20;99.90;;;;;;5013096;28;20129;-65
2024/01/13 06:56:57;;;;;;;16.98;15.15;;;3.20;99.90;;;;;;5012976;28;20044;-65
2024/01/13 06:59:24;;;;;;;17.05;15.35;;;3.20;99.90;;;;;;5012766;28;20038;-65
2024/01/13 07:01:51;;;;;;;16.42;14.73;;;3.20;99.90;;;;;;5013031;28;20038;-65
2024/01/13 07:04:18;;;;;;;16.02;14.35;;;3.20;99.90;;;;;;5014580;28;20046;-65
2024/01/13 07:06:45;;;;;;;16.05;14.35;;;3.20;99.90;;;;;;5016621;28;20042;-65
2024/01/13 07:09:12;;;;;;;19.25;15.43;;;3.20;99.90;;;;;;5016928;28;20038;-65
2024/01/13 07:11:39;;;;;;;16.27;14.57;;;3.20;99.90;;;;;;5016912;28;20046;-65
2024/01/13 07:14:06;;;;;;;17.60;15.65;;;3.20;99.90;;;;;;5016665;28;20530;-65
2024/01/13 07:16:33;;;;;;;16.58;14.65;;;3.20;99.90;;;;;;5016183;28;20042;-65
2024/01/13 07:18:59;;;;;;;18.42;16.35;;;3.20;99.90;;;;;;5016521;28;20045;-64
2024/01/13 07:21:29;;;;;;;19.73;15.88;;;3.10;99.90;;;;;;5016810;28;20060;-65
2024/01/13 07:23:55;;;;;;;20.85;16.40;;;3.00;99.90;;;;;;5016134;28;20048;-65
2024/01/13 07:26:22;;;;;;;19.75;17.65;;;3.00;99.90;;;;;;5015235;28;20065;-65
2024/01/13 07:28:49;;;;;;;18.50;16.52;;;2.80;99.90;;;;;;5016427;28;20052;-65
2024/01/13 07:31:16;;;;;;;20.63;17.25;;;2.60;99.90;;;;;;5016210;28;20080;-65
2024/01/13 07:33:43;;;;;;;18.52;16.60;;;2.60;99.90;;;;;;5015940;28;20045;-65
2024/01/13 07:36:12;;;;;;;18.48;16.48;;;2.50;99.90;;;;;;5014871;28;20093;-65
2024/01/13 07:38:38;;;;;;;23.15;17.45;;;2.40;99.90;;;;;;5017223;28;20048;-65
2024/01/13 07:41:07;;;;;;;21.50;19.00;;;2.40;99.90;;;;;;5035417;28;20053;-65
2024/01/13 07:43:34;;;;;;;22.35;17.52;;;2.40;99.90;;;;;;5034941;28;20042;-64
2024/01/13 07:46:04;;;;;;;21.83;18.88;;;2.50;99.90;;;;;;5035062;28;20065;-65
2024/01/13 07:48:31;;;;;;;19.85;17.75;;;2.50;99.90;;;;;;5034878;28;20052;-65
2024/01/13 07:50:58;;;;;;;20.20;17.85;;;2.40;99.90;;;;;;5035060;28;20478;-65
2024/01/13 07:53:27;;;;;;;20.08;17.70;;;2.40;99.90;;;;;;5034653;28;20045;-64
2024/01/13 07:55:54;;;;;;;22.48;17.85;;;2.30;99.90;;;;;;5035961;28;20053;-64
2024/01/13 07:58:21;;;;;;;21.60;19.33;;;2.30;99.90;;;;;;5035414;28;20092;-64
2024/01/13 08:00:50;;;;;;;26.60;21.25;;;2.30;99.90;;;;;;5035313;28;20132;-65
2024/01/13 08:03:17;;;;;;;23.83;20.60;;;2.20;99.90;;;;;;5035356;28;20042;-65
2024/01/13 08:05:44;;;;;;;24.00;20.60;;;2.20;99.90;;;;;;5035243;28;20068;-65
2024/01/13 08:08:11;;;;;;;23.88;21.30;;;2.20;99.90;;;;;;5035191;28;20045;-66
2024/01/13 08:10:38;;;;;;;25.45;21.60;;;2.30;99.90;;;;;;5035410;28;20127;-65
2024/01/13 08:13:05;;;;;;;25.80;21.55;;;2.30;99.90;;;;;;5035106;28;20049;-66
2024/01/13 08:15:32;;;;;;;24.77;21.83;;;2.40;99.90;;;;;;5034611;28;20077;-66
2024/01/13 08:17:59;;;;;;;26.95;23.45;;;2.50;99.90;;;;;;5035005;28;20098;-66
2024/01/13 08:20:27;;;;;;;25.25;21.83;;;2.50;99.90;;;;;;5034749;28;20073;-62
2024/01/13 08:22:54;;;;;;;25.15;21.42;;;2.40;99.90;;;;;;5034979;28;20037;-62
2024/01/13 08:25:20;;;;;;;25.17;22.25;;;2.40;99.90;;;;;;5034978;28;20060;-62
2024/01/13 08:27:47;;;;;;;24.50;21.85;;;2.30;99.90;;;;;;5034707;28;20049;-61
2024/01/13 08:30:14;;;;;;;27.17;21.85;;;2.30;99.90;;;;;;5035023;28;20092;-61
2024/01/13 08:32:41;;;;;;;26.60;22.60;;;2.40;99.90;;;;;;5034759;28;20108;-60
2024/01/13 08:35:08;;;;;;;26.75;23.83;;;2.40;99.90;;;;;;5034686;28;20040;-61
2024/01/13 08:37:35;;;;;;;29.60;24.30;;;2.40;99.90;;;;;;5034443;28;20582;-61
2024/01/13 08:40:06;;;;;;;28.30;23.50;;;2.40;99.90;;;;;;5033983;28;20459;-62
2024/01/13 08:42:33;;;;;;;27.17;22.40;;;2.50;99.90;;;;;;5034477;28;20044;-62
2024/01/13 08:45:00;;;;;;;25.98;22.55;;;2.50;99.90;;;;;;5034930;28;20156;-62
2024/01/13 08:47:27;;;;;;;29.35;24.05;;;2.50;99.90;;;;;;5035242;28;20603;-61
2024/01/13 08:49:55;;;;;;;28.67;24.58;;;2.50;99.90;;;;;;5033661;28;20041;-61
2024/01/13 08:52:22;;;;;;;30.33;24.80;;;2.50;99.90;;;;;;5034827;28;20041;-61
2024/01/13 08:54:51;;;;;;;30.00;25.55;;;2.50;99.90;;;;;;5034845;28;20045;-62
2024/01/13 08:57:18;;;;;;;27.92;24.65;;;2.40;99.90;;;;;;5034521;28;20053;-61
2024/01/13 08:59:45;;;;;;;28.45;25.30;;;2.50;99.90;;;;;;5034228;28;20084;-62
2024/01/13 09:02:12;;;;;;;29.42;24.75;;;2.50;99.90;;;;;;5034308;28;20049;-62
2024/01/13 09:04:39;;;;;;;30.00;25.60;;;2.50;99.90;;;;;;5033819;28;20044;-62
2024/01/13 09:07:06;;;;;;;34.70;26.40;;;2.50;99.90;;;;;;5034334;28;20045;-64
2024/01/13 09:09:33;;;;;;;30.48;26.48;;;2.60;99.90;;;;;;5032847;28;20088;-64
2024/01/13 09:12:00;;;;;;;33.58;27.45;;;2.50;99.90;;;;;;5033980;28;20509;-66
2024/01/13 09:14:26;;;;;;;36.00;27.73;;;2.60;99.90;;;;;;5033685;28;20039;-63
2024/01/13 09:16:53;;;;;;;32.33;26.83;;;2.50;99.90;;;;;;5034000;28;20394;-63
2024/01/13 09:19:20;;;;;;;32.20;27.20;;;2.60;99.90;;;;;;5033480;28;20133;-63
2024/01/13 09:21:47;;;;;;;39.72;29.55;;;2.50;99.90;;;;;;5033890;28;20041;-63
2024/01/13 09:24:16;;;;;;;35.08;27.58;;;2.60;99.90;;;;;;5033892;28;20068;-61
2024/01/13 09:26:43;;;;;;;34.42;28.13;;;2.60;99.90;;;;;;5031855;28;20045;-62
2024/01/13 09:29:15;;;;;;;36.45;27.83;;;2.60;99.90;;;;;;5032953;28;20620;-62
2024/01/13 09:31:45;;;;;;;34.60;26.92;;;2.60;99.90;;;;;;5033630;28;20132;-64
2024/01/13 09:34:12;;;;;;;38.08;26.55;;;2.50;99.90;;;;;;5033624;28;20037;-64
2024/01/13 09:36:40;;;;;;;38.28;27.23;;;2.50;99.90;;;;;;5033689;28;20116;-65
2024/01/13 09:39:11;;;;;;;35.30;26.27;;;2.50;99.90;;;;;;5032023;28;20037;-65
2024/01/13 09:41:39;;;;;;;36.53;25.20;;;2.50;99.90;;;;;;5033341;28;20045;-64
2024/01/13 09:44:06;;;;;;;37.33;26.25;;;2.50;99.90;;;;;;5033344;28;20061;-64
2024/01/13 09:46:33;;;;;;;36.42;25.55;;;2.40;99.90;;;;;;5033433;28;20398;-65
2024/01/13 09:49:00;;;;;;;38.60;25.15;;;2.50;99.90;;;;;;5033706;28;20498;-65
2024/01/13 09:51:27;;;;;;;34.22;24.38;;;2.40;99.90;;;;;;5033597;28;20046;-65
2024/01/13 09:54:00;;;;;;;41.13;24.30;;;2.40;99.90;;;;;;5033125;28;20148;-63
2024/01/13 09:56:27;;;;;;;32.67;22.95;;;2.50;99.90;;;;;;5033590;28;20438;-64
2024/01/13 09:58:54;;;;;;;34.75;23.45;;;2.50;99.90;;;;;;5033335;28;20041;-64
2024/01/13 10:01:20;;;;;;;32.13;22.73;;;2.50;99.90;;;;;;5033203;28;20100;-64
2024/01/13 10:04:00;;;;;;;31.52;21.58;;;2.40;99.90;;;;;;5032196;28;20491;-64
2024/01/13 10:06:27;;;;;;;27.92;21.25;;;2.40;99.90;;;;;;5033322;28;20033;-60
2024/01/13 10:08:54;;;;;;;29.77;21.95;;;2.50;99.90;;;;;;5033252;28;20057;-61
2024/01/13 10:11:21;;;;;;;32.42;22.40;;;2.50;99.90;;;;;;5033321;28;20103;-60
2024/01/13 10:13:57;;;;;;;33.38;23.08;;;2.40;99.90;;;;;;5033139;28;20091;-60
2024/01/13 10:16:24;;;;;;;31.10;22.15;;;2.30;99.90;;;;;;5032098;28;20038;-60
2024/01/13 10:18:50;;;;;;;32.72;23.27;;;2.40;99.90;;;;;;5032939;28;20061;-60
2024/01/13 10:21:17;;;;;;;33.17;23.23;;;2.40;99.90;;;;;;5032789;28;20060;-60
2024/01/13 10:23:57;;;;;;;33.42;24.05;;;2.30;99.90;;;;;;5032409;28;20050;-60
2024/01/13 10:26:24;;;;;;;34.03;24.25;;;2.20;99.90;;;;;;5032449;28;20069;-60
2024/01/13 10:28:51;;;;;;;34.55;23.58;;;2.30;99.90;;;;;;5032480;28;20060;-60
2024/01/13 10:31:18;;;;;;;37.35;24.05;;;2.40;99.90;;;;;;5032869;28;20135;-61
2024/01/13 10:33:55;;;;;;;33.15;23.80;;;2.40;99.90;;;;;;5033187;28;20546;-61
2024/01/13 10:36:22;;;;;;;33.63;24.23;;;2.50;99.90;;;;;;5032941;28;20061;-61
2024/01/13 10:38:49;;;;;;;33.17;23.85;;;2.40;99.90;;;;;;5033233;28;20038;-64
2024/01/13 10:41:16;;;;;;;33.17;23.35;;;2.50;99.90;;;;;;5036880;28;20044;-65
2024/01/13 10:43:56;;;;;;;34.88;25.08;;;2.50;99.90;;;;;;5036470;28;20038;-65
2024/01/13 10:46:23;;;;;;;31.70;23.08;;;2.50;99.90;;;;;;5036677;28;20053;-64
2024/01/13 10:48:51;;;;;;;31.88;23.75;;;2.50;99.90;;;;;;5036785;28;20120;-64
2024/01/13 10:51:17;;;;;;;31.90;23.73;;;2.50;99.90;;;;;;5036680;28;20053;-64
2024/01/13 10:54:00;;;;;;;36.22;24.20;;;2.60;99.90;;;;;;5036604;28;20482;-65
2024/01/13 10:56:26;;;;;;;32.85;23.85;;;2.60;99.90;;;;;;5036490;28;20470;-65
2024/01/13 10:58:53;;;;;;;31.73;23.27;;;2.70;99.90;;;;;;5036646;28;20048;-65
2024/01/13 11:01:20;;;;;;;33.72;23.52;;;2.70;99.90;;;;;;5035482;28;20103;-65
2024/01/13 11:03:59;;;;;;;32.80;22.73;;;2.80;99.90;;;;;;5036440;28;20124;-65
2024/01/13 11:06:26;;;;;;;32.42;23.50;;;2.80;99.90;;;;;;5036343;28;20073;-64
2024/01/13 11:08:53;;;;;;;31.90;23.13;;;2.90;99.90;;;;;;5036027;28;20124;-65
2024/01/13 11:11:20;;;;;;;30.48;23.27;;;2.90;99.90;;;;;;5036434;28;20066;-65
2024/01/13 11:14:03;;;;;;;31.10;23.63;;;3.00;99.90;;;;;;5036200;28;20041;-65
2024/01/13 11:16:31;;;;;;;29.52;22.77;;;3.10;99.90;;;;;;5036257;28;20038;-65
2024/01/13 11:18:58;;;;;;;30.67;22.42;;;3.10;99.90;;;;;;5036370;28;20172;-63
2024/01/13 11:21:25;;;;;;;32.00;22.45;;;3.20;99.90;;;;;;5036201;28;20046;-64
2024/01/13 11:24:07;;;;;;;33.42;22.95;;;3.20;99.90;;;;;;5035235;28;20041;-63
2024/01/13 11:26:34;;;;;;;34.20;23.95;;;3.30;99.90;;;;;;5036179;28;20042;-65
2024/01/13 11:29:01;;;;;;;29.48;22.77;;;3.30;99.90;;;;;;5034920;28;20037;-65
2024/01/13 11:31:28;;;;;;;29.33;22.88;;;3.30;99.90;;;;;;5036367;28;20052;-64
2024/01/13 11:34:10;;;;;;;28.85;22.10;;;3.30;99.90;;;;;;5035998;28;20056;-65
2024/01/13 11:36:37;;;;;;;30.83;22.17;;;3.40;99.90;;;;;;5035993;28;20037;-65
2024/01/13 11:39:04;;;;;;;29.13;22.40;;;3.30;99.90;;;;;;5035955;28;20116;-63
2024/01/13 11:41:31;;;;;;;27.48;21.23;;;3.40;99.90;;;;;;5035666;28;20045;-65
2024/01/13 11:44:05;;;;;;;29.90;21.95;;;3.50;99.90;;;;;;5034547;28;20064;-65
2024/01/13 11:46:32;;;;;;;32.17;22.38;;;3.50;99.90;;;;;;5035814;28;20045;-65
2024/01/13 11:48:59;;;;;;;27.88;21.52;;;3.50;99.90;;;;;;5034592;28;20049;-63
2024/01/13 11:51:26;;;;;;;28.77;21.95;;;3.50;99.90;;;;;;5035039;28;20107;-63
2024/01/13 11:54:02;;;;;;;28.88;22.10;;;3.50;99.90;;;;;;5035514;28;20053;-65
2024/01/13 11:56:29;;;;;;;28.70;21.13;;;3.50;99.90;;;;;;5035763;28;20038;-65
2024/01/13 11:58:56;;;;;;;31.55;22.98;;;3.50;99.90;;;;;;5034581;28;20045;-63
2024/01/13 12:01:23;;;;;;;29.98;22.13;;;3.40;99.90;;;;;;5035584;28;20380;-64
2024/01/13 12:04:02;;;;;;;28.33;21.38;;;3.40;99.90;;;;;;5035498;28;20080;-65
2024/01/13 12:06:28;;;;;;;28.58;22.13;;;3.40;99.90;;;;;;5035688;28;20033;-63
2024/01/13 12:08:55;;;;;;;29.55;22.58;;;3.50;99.90;;;;;;5035087;28;20041;-62
2024/01/13 12:11:22;;;;;;;29.42;21.77;;;3.50;99.90;;;;;;5035254;28;20043;-62
2024/01/13 12:14:00;;;;;;;28.77;21.45;;;3.50;99.90;;;;;;5035145;28;20096;-62
2024/01/13 12:16:28;;;;;;;27.75;21.23;;;3.60;99.90;;;;;;5017513;28;20084;-62
2024/01/13 12:18:55;;;;;;;29.10;22.65;;;3.70;99.90;;;;;;5035387;28;20045;-62
2024/01/13 12:21:22;;;;;;;30.25;22.35;;;3.80;99.90;;;;;;5035387;28;20414;-62
2024/01/13 12:24:06;;;;;;;26.75;20.52;;;3.80;99.90;;;;;;5035148;28;20041;-62
2024/01/13 12:26:33;;;;;;;29.48;21.27;;;3.90;99.90;;;;;;5035253;28;20072;-62
2024/01/13 12:28:59;;;;;;;28.88;20.98;;;3.90;99.90;;;;;;5034891;28;20125;-62
2024/01/13 12:31:26;;;;;;;26.08;19.98;;;3.90;99.90;;;;;;5035154;28;20103;-62
2024/01/13 12:34:07;;;;;;;31.08;22.30;;;4.00;99.90;;;;;;5034974;28;20045;-64
2024/01/13 12:36:34;;;;;;;25.10;20.35;;;3.90;99.90;;;;;;5035152;28;20042;-65
2024/01/13 12:39:01;;;;;;;26.70;21.52;;;3.90;99.90;;;;;;5034544;28;20045;-64
2024/01/13 12:41:27;;;;;;;26.42;20.80;;;3.90;99.90;;;;;;5034689;28;20048;-64
2024/01/13 12:43:54;;;;;;;28.00;20.25;;;3.90;99.90;;;;;;5034687;28;20040;-65